Time;durP1;ratioP1;P1;durP2;ratioP2;P2;SDS_P1;SDS_P2;PMS_P1;PMS_P2;Temp;Humidity;BMP_temperature;BMP_pressure;BME280_temperature;BME280_humidity;BME280_pressure;Samples;Min_cycle;Max_cycle;Signal;HPM_P1;HPM_P2
2021/03/16 00:02:20;;;;;;;41.72;22.23;;;22.80;28.50;;;;;;6235473;27;83015;-66
2021/03/16 00:05:25;;;;;;;42.47;22.67;;;22.80;28.50;;;;;;6242111;28;85163;-67
2021/03/16 00:08:26;;;;;;;42.00;23.23;;;22.80;29.00;;;;;;6232482;28;85530;-67
2021/03/16 00:11:26;;;;;;;42.00;23.30;;;22.80;28.80;;;;;;6247316;28;84112;-68
2021/03/16 00:14:27;;;;;;;42.72;23.23;;;22.80;29.00;;;;;;6242265;28;83175;-68
2021/03/16 00:17:27;;;;;;;47.20;25.83;;;22.80;29.00;;;;;;6245418;28;83455;-67
2021/03/16 00:20:28;;;;;;;44.90;25.42;;;22.80;28.80;;;;;;6246591;28;83398;-67
2021/03/16 00:23:28;;;;;;;45.80;24.90;;;22.80;28.80;;;;;;6244980;28;83081;-67
2021/03/16 00:26:29;;;;;;;47.53;24.27;;;22.80;28.60;;;;;;6224714;28;85860;-67
2021/03/16 00:29:30;;;;;;;46.58;25.48;;;22.80;28.60;;;;;;6229833;28;84209;-67
2021/03/16 00:32:30;;;;;;;44.15;25.75;;;22.80;28.60;;;;;;6241790;27;84095;-68
2021/03/16 00:35:31;;;;;;;46.63;26.92;;;22.80;28.60;;;;;;6248449;28;85752;-66
2021/03/16 00:38:31;;;;;;;46.58;26.17;;;22.70;29.10;;;;;;6251567;28;84117;-66
2021/03/16 00:41:32;;;;;;;51.35;27.40;;;22.70;28.70;;;;;;6235276;28;84173;-67
2021/03/16 00:44:32;;;;;;;49.80;27.70;;;22.70;28.60;;;;;;6240276;28;83942;-67
2021/03/16 00:47:33;;;;;;;55.95;29.88;;;22.70;28.60;;;;;;6239329;28;83425;-67
2021/03/16 00:50:34;;;;;;;54.92;30.08;;;22.70;28.60;;;;;;6228961;28;85911;-67
2021/03/16 00:53:34;;;;;;;50.72;29.02;;;22.70;28.80;;;;;;6243411;28;83144;-66
2021/03/16 00:56:40;;;;;;;60.58;31.55;;;22.70;28.50;;;;;;6242034;28;84424;-66
2021/03/16 00:59:41;;;;;;;49.83;28.52;;;22.70;28.50;;;;;;6246741;28;83983;-66
2021/03/16 01:02:41;;;;;;;50.25;30.15;;;22.70;28.50;;;;;;6241294;27;82831;-66
2021/03/16 01:05:42;;;;;;;55.85;29.58;;;22.70;28.40;;;;;;6245412;28;82999;-66
2021/03/16 01:08:42;;;;;;;47.35;27.55;;;22.70;28.50;;;;;;6235362;28;89443;-66
2021/03/16 01:11:43;;;;;;;53.63;30.27;;;22.80;28.50;;;;;;6244629;28;84046;-66
2021/03/16 01:14:44;;;;;;;55.17;31.05;;;22.70;28.40;;;;;;6246159;28;84038;-66
2021/03/16 01:17:44;;;;;;;48.55;27.88;;;22.70;28.30;;;;;;6249606;27;82883;-66
2021/03/16 01:20:45;;;;;;;53.67;29.27;;;22.70;28.30;;;;;;6230049;28;84498;-66
2021/03/16 01:23:45;;;;;;;52.10;27.92;;;22.70;28.40;;;;;;6241869;28;84323;-66
2021/03/16 01:26:46;;;;;;;49.13;26.88;;;22.70;28.30;;;;;;6240708;27;84377;-66
2021/03/16 01:29:46;;;;;;;51.05;29.17;;;22.70;28.30;;;;;;6247428;28;83207;-67
2021/03/16 01:32:47;;;;;;;55.58;29.02;;;22.70;28.30;;;;;;6236103;28;84337;-67
2021/03/16 01:35:48;;;;;;;50.13;28.88;;;22.70;28.40;;;;;;6233820;27;85527;-68
2021/03/16 01:38:48;;;;;;;47.55;27.10;;;22.70;28.40;;;;;;6215709;28;83309;-66
2021/03/16 01:41:49;;;;;;;54.50;29.17;;;22.70;28.50;;;;;;6239265;28;83677;-66
2021/03/16 01:44:49;;;;;;;56.03;28.70;;;22.70;28.30;;;;;;6234371;28;83228;-65
2021/03/16 01:47:50;;;;;;;55.08;29.40;;;22.70;28.60;;;;;;6233389;28;85127;-67
2021/03/16 01:50:50;;;;;;;49.60;28.48;;;22.70;28.40;;;;;;6231524;28;83455;-66
2021/03/16 01:53:51;;;;;;;56.15;29.98;;;22.70;28.40;;;;;;6239349;28;83143;-67
2021/03/16 01:56:52;;;;;;;54.78;30.23;;;22.70;28.40;;;;;;6223537;28;84118;-66
2021/03/16 02:00:11;;;;;;;50.80;29.45;;;22.70;28.50;;;;;;6237478;28;87313;-66
2021/03/16 02:03:30;;;;;;;56.03;31.65;;;22.60;28.30;;;;;;6232081;27;83057;-66
2021/03/16 02:06:49;;;;;;;59.80;32.80;;;22.60;28.30;;;;;;6231256;28;83245;-67
2021/03/16 02:10:08;;;;;;;56.38;31.02;;;22.70;28.40;;;;;;6232188;28;83307;-66
2021/03/16 02:13:27;;;;;;;50.97;29.70;;;22.60;28.40;;;;;;6242556;28;89760;-67
2021/03/16 02:16:47;;;;;;;54.00;28.92;;;22.60;28.80;;;;;;6244149;28;83421;-67
2021/03/16 02:20:06;;;;;;;51.17;28.88;;;22.70;28.90;;;;;;6240361;28;83905;-67
2021/03/16 02:23:25;;;;;;;48.80;28.52;;;22.60;28.80;;;;;;6237471;28;83855;-67
2021/03/16 02:26:45;;;;;;;50.25;28.73;;;22.60;28.90;;;;;;6239022;28;83435;-67
2021/03/16 02:30:04;;;;;;;48.60;28.20;;;22.60;29.00;;;;;;6233486;28;83659;-67
2021/03/16 02:33:23;;;;;;;48.72;27.13;;;22.60;29.00;;;;;;6232881;28;86160;-67
2021/03/16 02:36:42;;;;;;;48.47;26.85;;;22.60;29.00;;;;;;6218196;28;82730;-67
2021/03/16 02:40:02;;;;;;;48.97;26.63;;;22.60;29.00;;;;;;6234178;28;83473;-66
2021/03/16 02:43:21;;;;;;;49.08;26.88;;;22.60;29.00;;;;;;6236336;27;84089;-67
2021/03/16 02:46:40;;;;;;;44.42;26.05;;;22.60;29.00;;;;;;6235868;28;83666;-67
2021/03/16 02:49:59;;;;;;;42.15;25.02;;;22.60;28.90;;;;;;6229723;28;84295;-68
2021/03/16 02:53:18;;;;;;;48.65;25.73;;;22.60;28.90;;;;;;6231559;28;83904;-68
2021/03/16 02:56:37;;;;;;;47.05;25.52;;;22.60;28.90;;;;;;6231736;28;83123;-67
2021/03/16 02:59:56;;;;;;;45.80;25.45;;;22.60;28.90;;;;;;6234782;28;84047;-68
2021/03/16 03:03:15;;;;;;;54.03;27.05;;;22.60;28.90;;;;;;6230633;28;87637;-68
2021/03/16 03:06:34;;;;;;;45.40;26.05;;;22.60;28.80;;;;;;6239715;28;83566;-67
2021/03/16 03:09:53;;;;;;;45.05;26.20;;;22.60;28.70;;;;;;6244999;28;83390;-68
2021/03/16 03:13:12;;;;;;;49.17;27.50;;;22.60;28.70;;;;;;6243770;28;83637;-67
2021/03/16 03:16:32;;;;;;;46.22;26.20;;;22.60;28.70;;;;;;6230168;28;83471;-68
2021/03/16 03:19:51;;;;;;;47.47;28.00;;;22.60;29.10;;;;;;6245962;28;83289;-67
2021/03/16 03:23:10;;;;;;;47.22;26.23;;;22.60;28.70;;;;;;6229768;28;83047;-68
2021/03/16 03:26:29;;;;;;;48.75;26.92;;;22.50;28.60;;;;;;6233255;28;83632;-67
2021/03/16 03:29:48;;;;;;;47.28;25.85;;;22.60;28.70;;;;;;6243585;28;83129;-68
2021/03/16 03:33:07;;;;;;;48.08;25.98;;;22.60;28.70;;;;;;6238485;28;83014;-68
2021/03/16 03:36:26;;;;;;;45.05;26.15;;;22.60;28.80;;;;;;6200232;28;88197;-67
2021/03/16 03:39:45;;;;;;;46.63;27.17;;;22.50;28.70;;;;;;6219101;28;83459;-68
2021/03/16 03:43:04;;;;;;;48.78;26.58;;;22.50;28.80;;;;;;6234048;28;83130;-66
2021/03/16 03:46:23;;;;;;;51.00;28.20;;;22.50;28.80;;;;;;6240759;27;84532;-65
2021/03/16 03:49:42;;;;;;;47.58;26.00;;;22.50;28.70;;;;;;6231903;28;83800;-65
2021/03/16 03:53:01;;;;;;;47.92;27.75;;;22.50;28.70;;;;;;6243496;28;83519;-66
2021/03/16 03:56:20;;;;;;;48.17;26.25;;;22.50;28.80;;;;;;6243681;28;83309;-68
2021/03/16 03:59:39;;;;;;;49.53;27.15;;;22.50;28.70;;;;;;6240787;28;83061;-67
2021/03/16 04:02:59;;;;;;;51.95;27.25;;;22.60;28.70;;;;;;6244882;28;93372;-67
2021/03/16 04:06:18;;;;;;;52.00;28.42;;;22.60;28.80;;;;;;6220126;28;87234;-68
2021/03/16 04:09:37;;;;;;;48.40;27.77;;;22.50;28.70;;;;;;6216941;28;83946;-67
2021/03/16 04:12:56;;;;;;;50.53;25.38;;;22.60;28.80;;;;;;6250161;28;85583;-68
2021/03/16 04:16:15;;;;;;;53.83;28.17;;;22.50;29.40;;;;;;6231773;28;82972;-67
2021/03/16 04:19:34;;;;;;;50.55;27.40;;;22.50;29.00;;;;;;6243684;28;84213;-67
2021/03/16 04:22:53;;;;;;;50.40;28.25;;;22.50;28.50;;;;;;6243919;28;83110;-67
2021/03/16 04:26:12;;;;;;;50.88;26.98;;;22.60;28.50;;;;;;6240083;28;83979;-67
2021/03/16 04:29:31;;;;;;;48.78;27.23;;;22.60;28.50;;;;;;6244630;28;83621;-67
2021/03/16 04:32:50;;;;;;;51.78;28.17;;;22.60;28.50;;;;;;6238134;28;83202;-67
2021/03/16 04:36:09;;;;;;;52.08;28.02;;;22.60;28.40;;;;;;6238971;28;87427;-67
2021/03/16 04:39:28;;;;;;;50.95;27.55;;;22.60;28.10;;;;;;6231611;28;83351;-68
2021/03/16 04:42:47;;;;;;;54.30;27.90;;;22.70;28.00;;;;;;6242619;27;83348;-67
2021/03/16 04:46:06;;;;;;;47.85;26.33;;;22.70;27.80;;;;;;6240808;28;83489;-67
2021/03/16 04:49:25;;;;;;;49.67;27.35;;;22.70;27.70;;;;;;6243974;28;83715;-68
2021/03/16 04:52:44;;;;;;;53.50;29.15;;;22.80;27.60;;;;;;6243548;27;83394;-66
2021/03/16 04:56:03;;;;;;;51.13;27.90;;;22.80;27.60;;;;;;6231747;28;83404;-69
2021/03/16 04:59:22;;;;;;;46.05;26.45;;;22.80;27.50;;;;;;6247805;28;82900;-68
2021/03/16 05:02:41;;;;;;;51.38;29.23;;;22.90;27.50;;;;;;6240845;28;83170;-69
2021/03/16 05:06:00;;;;;;;52.08;27.80;;;22.90;27.40;;;;;;6247387;28;84883;-68
2021/03/16 05:09:19;;;;;;;49.78;26.92;;;22.90;27.80;;;;;;6245302;28;88053;-67
2021/03/16 05:12:38;;;;;;;48.40;27.58;;;23.00;27.60;;;;;;6239154;27;84678;-71
2021/03/16 05:15:57;;;;;;;41.60;22.02;;;23.00;27.90;;;;;;6235712;28;83021;-68
2021/03/16 05:19:16;;;;;;;34.83;19.75;;;23.00;29.40;;;;;;6243273;28;84055;-67
2021/03/16 05:22:35;;;;;;;32.47;16.27;;;23.00;30.80;;;;;;6235850;28;83978;-68
2021/03/16 05:25:54;;;;;;;25.33;14.40;;;22.90;31.60;;;;;;6236927;28;83714;-67
2021/03/16 05:29:13;;;;;;;23.55;13.70;;;23.00;31.60;;;;;;6242063;28;86457;-67
2021/03/16 05:32:32;;;;;;;25.77;13.65;;;22.90;32.50;;;;;;6241041;28;83701;-68
2021/03/16 05:35:51;;;;;;;22.63;12.82;;;23.00;32.90;;;;;;6241684;28;84183;-68
2021/03/16 05:39:10;;;;;;;22.08;12.98;;;22.90;33.10;;;;;;6231099;28;87137;-68
2021/03/16 05:42:29;;;;;;;23.38;12.35;;;22.90;33.60;;;;;;6231374;27;84448;-67
2021/03/16 05:45:49;;;;;;;24.02;12.38;;;22.90;33.80;;;;;;6223922;28;83165;-69
2021/03/16 05:49:08;;;;;;;20.50;12.77;;;22.90;34.50;;;;;;6242072;28;83572;-69
2021/03/16 05:52:27;;;;;;;24.85;13.70;;;22.90;34.90;;;;;;6234417;28;83149;-68
2021/03/16 05:55:46;;;;;;;25.05;13.80;;;22.90;35.40;;;;;;6234390;28;83441;-69
2021/03/16 05:59:05;;;;;;;27.23;14.68;;;22.90;36.60;;;;;;6241904;28;83467;-70
2021/03/16 06:02:24;;;;;;;27.73;14.07;;;22.90;37.00;;;;;;6247130;28;83061;-66
2021/03/16 06:05:43;;;;;;;27.45;14.70;;;22.90;37.30;;;;;;6230874;27;83195;-70
2021/03/16 06:09:02;;;;;;;29.55;16.27;;;22.90;38.00;;;;;;6242795;28;83079;-67
2021/03/16 06:12:21;;;;;;;30.80;14.95;;;22.90;38.20;;;;;;6239023;27;87678;-67
2021/03/16 06:15:42;;;;;;;31.02;17.80;;;22.90;38.30;;;;;;6243281;28;83525;-68
2021/03/16 06:19:01;;;;;;;32.13;17.70;;;22.90;38.30;;;;;;6205244;28;82945;-67
2021/03/16 06:22:20;;;;;;;31.60;17.02;;;23.00;38.50;;;;;;6214444;28;84190;-66
2021/03/16 06:25:40;;;;;;;26.30;15.40;;;23.00;38.50;;;;;;6230216;28;83060;-67
2021/03/16 06:28:59;;;;;;;30.50;16.60;;;23.00;38.50;;;;;;6229920;28;83416;-67
2021/03/16 06:32:18;;;;;;;31.88;16.48;;;23.00;38.30;;;;;;6233117;28;86914;-66
2021/03/16 06:35:37;;;;;;;27.75;15.00;;;23.00;38.10;;;;;;6219850;27;83239;-69
2021/03/16 06:38:56;;;;;;;28.98;16.17;;;23.00;38.30;;;;;;6240409;27;83205;-71
2021/03/16 06:42:15;;;;;;;31.40;14.85;;;23.00;38.90;;;;;;6224155;28;87420;-68
2021/03/16 06:45:34;;;;;;;32.35;14.55;;;23.10;38.50;;;;;;6210640;28;85633;-66
2021/03/16 06:48:53;;;;;;;33.92;15.00;;;23.00;39.60;;;;;;6239372;28;87168;-67
2021/03/16 06:52:12;;;;;;;28.10;16.00;;;23.10;38.60;;;;;;6241672;28;83997;-67
2021/03/16 06:55:31;;;;;;;28.50;15.52;;;23.10;38.60;;;;;;6236807;28;84167;-68
2021/03/16 06:58:50;;;;;;;24.90;14.45;;;23.10;38.10;;;;;;6218915;28;83738;-69
2021/03/16 07:02:09;;;;;;;29.45;16.73;;;23.10;38.00;;;;;;6233415;28;83520;-68
2021/03/16 07:05:29;;;;;;;29.00;15.07;;;23.00;37.60;;;;;;6236756;28;83367;-68
2021/03/16 07:08:48;;;;;;;27.92;14.68;;;23.00;37.40;;;;;;6236892;28;83800;-69
2021/03/16 07:12:07;;;;;;;24.90;14.07;;;22.90;37.40;;;;;;6241144;28;83269;-68
2021/03/16 07:15:27;;;;;;;24.33;14.00;;;23.00;37.50;;;;;;6240573;28;87224;-68
2021/03/16 07:18:46;;;;;;;21.77;12.55;;;22.90;36.90;;;;;;6236726;28;83651;-67
2021/03/16 07:22:05;;;;;;;25.65;12.70;;;22.90;37.50;;;;;;6238218;28;83133;-67
2021/03/16 07:25:24;;;;;;;22.02;12.20;;;22.90;37.50;;;;;;6240741;28;83223;-67
2021/03/16 07:28:43;;;;;;;21.42;12.70;;;22.90;37.30;;;;;;6239066;28;83526;-68
2021/03/16 07:32:02;;;;;;;19.20;11.48;;;22.90;36.80;;;;;;6242584;28;82744;-69
2021/03/16 07:35:21;;;;;;;18.45;11.13;;;22.90;36.20;;;;;;6232623;27;83799;-68
2021/03/16 07:38:40;;;;;;;19.90;10.88;;;22.90;35.70;;;;;;6241457;28;83744;-68
2021/03/16 07:41:59;;;;;;;18.90;10.95;;;23.00;35.50;;;;;;6228964;28;83767;-69
2021/03/16 07:45:18;;;;;;;21.35;10.43;;;23.00;35.00;;;;;;6181622;28;87418;-66
2021/03/16 07:48:37;;;;;;;18.88;10.95;;;22.90;34.80;;;;;;6241690;28;83061;-68
2021/03/16 07:51:56;;;;;;;17.52;10.85;;;23.00;35.00;;;;;;6233714;28;83537;-68
2021/03/16 07:55:15;;;;;;;18.27;10.15;;;23.00;34.60;;;;;;6239373;28;83634;-68
2021/03/16 07:58:34;;;;;;;17.10;9.70;;;22.90;34.20;;;;;;6230371;28;83392;-70
2021/03/16 08:01:53;;;;;;;17.10;10.40;;;22.90;34.30;;;;;;6240643;27;83152;-69
2021/03/16 08:05:12;;;;;;;20.25;11.00;;;22.90;34.20;;;;;;6232878;28;83445;-68
2021/03/16 08:08:31;;;;;;;18.92;10.13;;;22.90;34.20;;;;;;6231877;28;83057;-68
2021/03/16 08:11:50;;;;;;;18.58;10.63;;;22.90;34.10;;;;;;6233592;28;83159;-67
2021/03/16 08:15:09;;;;;;;23.52;11.63;;;22.90;33.70;;;;;;6245113;28;87929;-68
2021/03/16 08:18:30;;;;;;;21.73;12.77;;;22.90;34.00;;;;;;6237130;28;83443;-68
2021/03/16 08:21:48;;;;;;;21.15;11.68;;;22.90;34.00;;;;;;6231726;28;83340;-67
2021/03/16 08:25:08;;;;;;;21.83;12.50;;;22.90;33.80;;;;;;6236210;28;84892;-68
2021/03/16 08:28:27;;;;;;;22.98;14.57;;;22.90;33.90;;;;;;6242291;27;84469;-68
2021/03/16 08:31:46;;;;;;;31.10;12.48;;;22.90;34.70;;;;;;6247220;28;83762;-69
2021/03/16 08:35:04;;;;;;;24.65;14.40;;;23.00;34.90;;;;;;6242212;28;83176;-68
2021/03/16 08:38:24;;;;;;;27.85;13.90;;;23.00;36.30;;;;;;6238709;28;85314;-65
2021/03/16 08:41:43;;;;;;;27.70;15.00;;;23.00;36.40;;;;;;6243269;28;83586;-66
2021/03/16 08:45:02;;;;;;;27.02;13.88;;;23.10;37.10;;;;;;6247161;28;83377;-68
2021/03/16 08:48:20;;;;;;;35.30;15.93;;;23.00;37.50;;;;;;6237712;28;87674;-67
2021/03/16 08:51:40;;;;;;;33.40;16.50;;;23.10;38.30;;;;;;6242923;28;83238;-68
2021/03/16 08:54:59;;;;;;;35.88;16.58;;;23.10;39.00;;;;;;6236868;27;83674;-67
2021/03/16 08:58:18;;;;;;;32.00;15.90;;;23.10;40.40;;;;;;6239719;28;83317;-69
2021/03/16 09:01:37;;;;;;;40.13;17.60;;;23.10;39.10;;;;;;6237003;28;83691;-68
2021/03/16 09:04:56;;;;;;;38.10;17.15;;;23.10;40.20;;;;;;6231222;28;83607;-68
2021/03/16 09:08:15;;;;;;;31.85;16.98;;;23.00;39.80;;;;;;6246750;28;83568;-69
2021/03/16 09:11:35;;;;;;;28.23;15.85;;;23.00;39.20;;;;;;6235805;27;85494;-69
2021/03/16 09:14:54;;;;;;;25.77;13.90;;;23.00;38.90;;;;;;6232517;28;83407;-69
2021/03/16 09:18:13;;;;;;;24.45;13.57;;;23.00;37.80;;;;;;6240715;28;87494;-68
2021/03/16 09:21:33;;;;;;;28.17;13.77;;;23.00;37.60;;;;;;6235315;28;82900;-68
2021/03/16 09:24:52;;;;;;;25.90;12.63;;;22.90;37.00;;;;;;6225732;28;83026;-67
2021/03/16 09:28:11;;;;;;;23.10;12.55;;;22.90;36.60;;;;;;6235290;28;83903;-67
2021/03/16 09:31:30;;;;;;;22.83;12.25;;;23.00;36.20;;;;;;6235336;28;83355;-67
2021/03/16 09:34:49;;;;;;;24.10;13.50;;;23.00;36.00;;;;;;6241539;28;83080;-68
2021/03/16 09:38:08;;;;;;;20.13;11.70;;;23.10;35.70;;;;;;6243538;28;83414;-68
2021/03/16 09:41:35;;;;;;;;;;;23.10;35.60;;;;;;6245420;27;84880;-69
2021/03/16 09:44:36;;;;;;;20.33;12.48;;;23.10;35.60;;;;;;6244954;28;84117;-68
2021/03/16 09:47:36;;;;;;;19.50;11.05;;;23.10;35.50;;;;;;6243409;27;83185;-71
2021/03/16 09:50:37;;;;;;;20.30;11.50;;;23.10;35.40;;;;;;6237600;27;83530;-68
2021/03/16 09:53:39;;;;;;;17.40;10.68;;;23.20;35.50;;;;;;6241351;27;83459;-68
2021/03/16 09:56:40;;;;;;;20.83;11.60;;;23.20;35.20;;;;;;6241631;28;83299;-68
2021/03/16 09:59:41;;;;;;;19.13;11.75;;;23.20;35.60;;;;;;6246318;28;84735;-69
2021/03/16 10:02:42;;;;;;;19.30;12.13;;;23.20;35.50;;;;;;6227771;28;85485;-69
2021/03/16 10:05:42;;;;;;;15.50;9.88;;;23.30;37.40;;;;;;6235697;28;84188;-68
2021/03/16 10:08:43;;;;;;;18.77;10.93;;;23.40;37.30;;;;;;6239805;28;82899;-68
2021/03/16 10:11:43;;;;;;;17.17;9.82;;;23.50;38.50;;;;;;6245466;28;83388;-68
2021/03/16 10:14:44;;;;;;;15.80;9.75;;;23.50;40.90;;;;;;6248476;28;82668;-69
2021/03/16 10:17:44;;;;;;;16.73;9.45;;;23.60;39.00;;;;;;6250264;28;81587;-69
2021/03/16 10:20:45;;;;;;;17.20;9.63;;;23.60;38.80;;;;;;6237880;27;80715;-68
2021/03/16 10:23:48;;;;;;;16.33;9.07;;;23.70;41.80;;;;;;6246543;27;80935;-68
2021/03/16 10:26:48;;;;;;;15.52;9.05;;;23.70;39.40;;;;;;6244861;28;82117;-68
2021/03/16 10:29:49;;;;;;;12.27;7.93;;;23.70;41.30;;;;;;6230645;28;83926;-68
2021/03/16 10:32:50;;;;;;;16.00;8.60;;;23.60;39.60;;;;;;6247074;28;80530;-67
2021/03/16 10:35:50;;;;;;;29.42;18.35;;;23.60;39.20;;;;;;6242783;28;80792;-69
2021/03/16 10:38:51;;;;;;;19.15;11.13;;;23.60;35.10;;;;;;6242203;28;83578;-67
2021/03/16 10:41:51;;;;;;;18.98;10.57;;;23.50;37.10;;;;;;6242308;28;83282;-68
2021/03/16 10:44:52;;;;;;;17.58;9.80;;;23.40;36.10;;;;;;6244177;28;84115;-67
2021/03/16 10:47:52;;;;;;;13.70;8.65;;;23.40;36.30;;;;;;6246383;28;84214;-67
2021/03/16 10:50:53;;;;;;;14.15;8.65;;;23.30;36.40;;;;;;6247220;28;83638;-69
2021/03/16 10:53:54;;;;;;;10.90;6.57;;;23.30;36.30;;;;;;6248179;27;81360;-69
2021/03/16 10:56:55;;;;;;;11.20;6.78;;;23.30;36.50;;;;;;6243298;28;80891;-70
2021/03/16 10:59:55;;;;;;;9.57;6.30;;;23.30;36.40;;;;;;6245415;28;81134;-69
2021/03/16 11:02:56;;;;;;;11.75;5.75;;;23.20;36.40;;;;;;6248357;28;80931;-69
2021/03/16 11:05:57;;;;;;;13.07;6.45;;;23.20;36.30;;;;;;6240946;28;80528;-68
2021/03/16 11:08:57;;;;;;;11.75;5.68;;;23.20;36.30;;;;;;6242712;28;80751;-70
2021/03/16 11:11:58;;;;;;;11.57;6.15;;;23.20;36.20;;;;;;6240371;28;80549;-67
2021/03/16 11:14:59;;;;;;;10.07;6.20;;;23.20;36.70;;;;;;6228556;28;83196;-69
2021/03/16 11:17:59;;;;;;;10.75;5.50;;;23.20;36.40;;;;;;6239563;28;80601;-68
2021/03/16 11:21:00;;;;;;;14.25;5.28;;;23.20;36.40;;;;;;6248373;28;80975;-69
2021/03/16 11:24:01;;;;;;;10.60;5.00;;;23.20;36.40;;;;;;6241526;28;81476;-69
2021/03/16 11:27:01;;;;;;;9.63;5.30;;;23.20;36.30;;;;;;6240352;28;80820;-68
2021/03/16 11:30:02;;;;;;;11.10;4.55;;;23.20;36.70;;;;;;6246369;28;80626;-69
2021/03/16 11:33:03;;;;;;;9.20;5.32;;;23.30;36.40;;;;;;6242771;28;83125;-68
2021/03/16 11:36:22;;;;;;;5.82;3.97;;;23.20;36.30;;;;;;6232968;28;84535;-68
2021/03/16 11:39:44;;;;;;;10.48;5.00;;;23.20;36.30;;;;;;6240564;28;81624;-68
2021/03/16 11:43:02;;;;;;;6.70;4.20;;;23.30;36.30;;;;;;6239418;28;80277;-68
2021/03/16 11:46:21;;;;;;;6.15;3.83;;;23.20;36.40;;;;;;6242647;28;81250;-66
2021/03/16 11:49:40;;;;;;;7.78;4.07;;;23.20;36.10;;;;;;6237924;28;80923;-62
2021/03/16 11:52:59;;;;;;;7.68;3.90;;;23.20;36.30;;;;;;6246535;28;80563;-65
2021/03/16 11:56:18;;;;;;;8.05;3.95;;;23.20;36.50;;;;;;6246871;28;80933;-66
2021/03/16 11:59:37;;;;;;;6.43;3.88;;;23.20;37.00;;;;;;6244246;28;80984;-65
2021/03/16 12:02:57;;;;;;;5.93;3.75;;;23.20;36.70;;;;;;6244488;28;80936;-66
2021/03/16 12:06:16;;;;;;;6.60;3.42;;;23.20;36.80;;;;;;6248164;28;84713;-66
2021/03/16 12:09:36;;;;;;;7.78;5.10;;;23.20;37.20;;;;;;6235911;28;80606;-65
2021/03/16 12:12:54;;;;;;;15.70;10.23;;;23.30;39.20;;;;;;6240092;28;80992;-66
2021/03/16 12:16:13;;;;;;;11.75;8.35;;;23.30;38.70;;;;;;6243127;27;83287;-66
2021/03/16 12:19:32;;;;;;;12.98;7.53;;;23.30;38.40;;;;;;6244321;28;82658;-65
2021/03/16 12:22:51;;;;;;;16.20;9.63;;;23.30;38.50;;;;;;6249642;28;81149;-68
2021/03/16 12:26:11;;;;;;;14.63;7.15;;;23.30;37.70;;;;;;6239814;27;81487;-66
2021/03/16 12:29:30;;;;;;;16.48;10.23;;;23.30;38.10;;;;;;6246573;27;80844;-67
2021/03/16 12:32:49;;;;;;;17.50;9.88;;;23.30;39.70;;;;;;6248125;27;83642;-67
2021/03/16 12:36:09;;;;;;;16.70;9.25;;;23.40;39.00;;;;;;6247237;27;82684;-66
2021/03/16 12:39:29;;;;;;;14.38;8.38;;;23.40;38.80;;;;;;6243511;27;84635;-67
2021/03/16 12:42:48;;;;;;;14.30;8.15;;;23.40;38.30;;;;;;6247337;27;81919;-68
2021/03/16 12:46:07;;;;;;;13.45;8.43;;;23.40;38.10;;;;;;6245322;27;80820;-68
2021/03/16 12:49:26;;;;;;;13.00;7.40;;;23.40;38.10;;;;;;6245105;27;80615;-68
2021/03/16 12:52:45;;;;;;;13.32;8.15;;;23.40;37.30;;;;;;6246505;27;81302;-67
2021/03/16 12:56:04;;;;;;;14.65;8.35;;;23.40;36.80;;;;;;6241516;27;80900;-66
2021/03/16 12:59:23;;;;;;;17.13;8.32;;;23.40;36.50;;;;;;6233961;27;80509;-67
2021/03/16 13:02:42;;;;;;;10.25;7.03;;;23.40;36.60;;;;;;6249709;27;83045;-67
2021/03/16 13:06:01;;;;;;;15.30;8.15;;;23.40;36.80;;;;;;6245359;27;80683;-66
2021/03/16 13:09:20;;;;;;;13.65;7.65;;;23.40;36.50;;;;;;6241511;27;84629;-65
2021/03/16 13:12:39;;;;;;;12.48;7.35;;;23.40;36.10;;;;;;6245999;27;80840;-67
2021/03/16 13:15:58;;;;;;;12.27;6.78;;;23.40;36.10;;;;;;6250025;27;80819;-67
2021/03/16 13:19:18;;;;;;;8.98;6.10;;;23.40;36.00;;;;;;6245451;27;80568;-67
2021/03/16 13:22:36;;;;;;;12.43;7.13;;;23.40;36.30;;;;;;6243758;27;80237;-67
2021/03/16 13:25:56;;;;;;;11.77;6.68;;;23.40;36.00;;;;;;6247153;27;81158;-68
2021/03/16 13:29:15;;;;;;;11.52;6.30;;;23.40;35.70;;;;;;6246007;27;81315;-66
2021/03/16 13:32:34;;;;;;;10.43;5.93;;;23.40;35.60;;;;;;6246534;28;80612;-67
2021/03/16 13:35:53;;;;;;;10.68;6.40;;;23.40;35.50;;;;;;6245333;27;81090;-64
2021/03/16 13:39:11;;;;;;;9.20;6.03;;;23.40;35.40;;;;;;6243758;27;80962;-66
2021/03/16 13:42:30;;;;;;;10.63;5.50;;;23.40;35.60;;;;;;6243747;27;84709;-66
2021/03/16 13:45:50;;;;;;;8.30;5.82;;;23.30;35.60;;;;;;6247750;27;81339;-67
2021/03/16 13:49:09;;;;;;;9.00;5.30;;;23.40;35.40;;;;;;6228760;28;80854;-66
2021/03/16 13:52:28;;;;;;;8.45;5.38;;;23.40;35.60;;;;;;6240705;27;80718;-68
2021/03/16 13:55:47;;;;;;;10.38;5.47;;;23.40;35.50;;;;;;6244905;28;82715;-67
2021/03/16 13:59:06;;;;;;;10.95;5.35;;;23.40;35.50;;;;;;6237748;28;81318;-67
2021/03/16 14:02:25;;;;;;;10.98;5.75;;;23.30;35.50;;;;;;6240364;28;80718;-67
2021/03/16 14:05:44;;;;;;;9.20;4.78;;;23.30;35.10;;;;;;6243487;28;81548;-67
2021/03/16 14:09:03;;;;;;;7.63;4.50;;;23.30;35.40;;;;;;6251008;28;80647;-67
2021/03/16 14:12:22;;;;;;;11.27;5.72;;;23.30;34.90;;;;;;6246438;28;80634;-65
2021/03/16 14:15:41;;;;;;;7.55;5.10;;;23.30;34.80;;;;;;6228508;28;84586;-63
2021/03/16 14:19:00;;;;;;;11.25;6.28;;;23.40;34.00;;;;;;6245548;27;80740;-66
2021/03/16 14:22:19;;;;;;;12.93;5.65;;;23.30;33.50;;;;;;6237197;28;80802;-67
2021/03/16 14:25:38;;;;;;;10.38;5.75;;;23.30;33.80;;;;;;6248642;27;81726;-66
2021/03/16 14:28:57;;;;;;;9.18;5.82;;;23.30;34.10;;;;;;6247075;27;81383;-68
2021/03/16 14:32:16;;;;;;;9.13;5.40;;;23.40;34.00;;;;;;6247767;28;80896;-68
2021/03/16 14:35:35;;;;;;;10.45;5.97;;;23.40;34.70;;;;;;6243657;28;80687;-69
2021/03/16 14:38:54;;;;;;;11.45;5.75;;;23.40;34.00;;;;;;6238829;28;80503;-68
2021/03/16 14:42:13;;;;;;;9.02;6.13;;;23.50;34.40;;;;;;6239388;28;80738;-68
2021/03/16 14:45:32;;;;;;;9.32;5.38;;;23.50;34.30;;;;;;6247283;28;84755;-69
2021/03/16 14:48:51;;;;;;;9.38;6.15;;;23.50;34.00;;;;;;6240540;28;82700;-68
2021/03/16 14:52:10;;;;;;;9.23;5.30;;;23.50;35.00;;;;;;6248913;28;81038;-69
2021/03/16 14:55:29;;;;;;;9.52;5.63;;;23.50;34.70;;;;;;6241498;27;80758;-68
2021/03/16 14:58:48;;;;;;;11.02;5.97;;;23.50;34.30;;;;;;6247459;28;81079;-69
2021/03/16 15:02:07;;;;;;;9.70;5.85;;;23.50;34.50;;;;;;6240248;28;80893;-66
2021/03/16 15:05:26;;;;;;;10.07;6.00;;;23.50;34.70;;;;;;6247507;28;80536;-71
2021/03/16 15:08:45;;;;;;;10.27;5.97;;;23.60;34.70;;;;;;6233929;28;83269;-66
2021/03/16 15:12:04;;;;;;;10.57;6.70;;;23.50;34.60;;;;;;6247497;28;80474;-66
2021/03/16 15:15:24;;;;;;;10.10;6.22;;;23.60;34.50;;;;;;6230955;28;84631;-67
2021/03/16 15:18:43;;;;;;;11.65;6.43;;;23.60;34.50;;;;;;6241215;28;84579;-67
2021/03/16 15:22:02;;;;;;;9.13;6.68;;;23.60;34.10;;;;;;6236133;27;80785;-65
2021/03/16 15:25:21;;;;;;;11.38;6.65;;;23.60;33.90;;;;;;6234772;28;80622;-66
2021/03/16 15:28:41;;;;;;;10.60;7.38;;;23.50;33.80;;;;;;6210888;28;81040;-65
2021/03/16 15:32:00;;;;;;;10.77;7.32;;;23.50;33.50;;;;;;6241785;28;81392;-69
2021/03/16 15:35:19;;;;;;;14.40;8.10;;;23.50;33.80;;;;;;6237113;28;80744;-70
2021/03/16 15:38:38;;;;;;;10.05;6.97;;;23.50;33.50;;;;;;6238984;28;82836;-68
2021/03/16 15:41:57;;;;;;;12.95;7.88;;;23.50;33.90;;;;;;6253325;28;81022;-72
2021/03/16 15:45:16;;;;;;;13.27;7.90;;;23.40;33.30;;;;;;6249251;28;82591;-66
2021/03/16 15:48:35;;;;;;;13.75;9.05;;;23.40;33.70;;;;;;6239313;27;84682;-65
2021/03/16 15:51:54;;;;;;;14.70;8.98;;;23.40;33.60;;;;;;6249839;28;80543;-67
2021/03/16 15:55:13;;;;;;;13.40;7.60;;;23.40;33.70;;;;;;6227719;28;81043;-69
2021/03/16 15:58:32;;;;;;;253.45;98.18;;;23.40;33.20;;;;;;6242510;28;81384;-69
2021/03/16 16:01:51;;;;;;;193.88;71.82;;;23.40;33.70;;;;;;6245932;28;83017;-69
2021/03/16 16:05:10;;;;;;;257.90;103.55;;;23.40;33.60;;;;;;6245770;28;87187;-69
2021/03/16 16:08:29;;;;;;;317.73;118.40;;;23.40;34.30;;;;;;6236842;28;85835;-68
2021/03/16 16:11:48;;;;;;;255.98;98.72;;;23.40;34.40;;;;;;6243143;28;85792;-70
2021/03/16 16:15:07;;;;;;;236.10;88.40;;;23.40;34.60;;;;;;6248087;28;85097;-69
2021/03/16 16:18:26;;;;;;;200.07;79.65;;;23.40;34.80;;;;;;6248265;28;90542;-69
2021/03/16 16:21:45;;;;;;;180.52;69.30;;;23.30;34.00;;;;;;6241862;27;87155;-69
2021/03/16 16:25:04;;;;;;;156.73;62.10;;;23.30;34.10;;;;;;6248091;28;83491;-69
2021/03/16 16:28:23;;;;;;;142.40;53.70;;;23.30;34.30;;;;;;6235506;28;83693;-68
2021/03/16 16:31:43;;;;;;;126.60;48.78;;;23.30;34.70;;;;;;6247887;28;83178;-67